Oshoro Maru — JDVA — position and weather

sailwx.info

Track history (hours):
 
Tides and Currents Weather Stations Pressure Air Temp Water Temp Dewpoint Dewpoint Depression Visibility Wind Speed Wind Dir Waves Ship Positions

Oceanographic research ship Oshoro Maru (Japan)

Detailed information on ship capabilities available from University of Delaware's Ocean Information Center.

Last reported at 2018-Feb-03 15:33 UTC. Time now 2018-Feb-25 11:40 UTC.
Position N 34°31' E 138°51'.
Warning: this ship's position is 21 days out of date.

Length 73 m; beam 13 m; draft 5 m.

Type: Other ship. MMSI: 431477000.

Date/timePositionNaut miles runAvg speedWind from/ knotsBaromVisibWave heightAir tempDewpointWater temp
2018-Feb-03 15:33N 34°31' E 138°51'1 7.0
2018-Feb-03 15:25N 34°32' E 138°52'3 7.1
2018-Feb-03 15:00N 34°33' E 138°55'4 7.0
2018-Feb-03 14:30N 34°34' E 138°59'4 7.8
2018-Feb-03 13:55N 34°37' E 139°03'4 8.6
2018-Feb-03 13:26N 34°40' E 139°07'5 8.8
2018-Feb-03 12:54N 34°44' E 139°11'3 8.9
2018-Feb-03 12:30N 34°46' E 139°14'8 9.6
2018-Feb-03 11:40N 34°51' E 139°22'2 9.5
2018-Feb-03 11:29N 34°52' E 139°24'5 9.3
2018-Feb-03 11:00N 34°55' E 139°28'5 9.1
2018-Feb-03 10:30N 34°58' E 139°32'5 9.5
2018-Feb-03 10:00N 35°01' E 139°36'610.7
2018-Feb-03 09:27N 35°05' E 139°41'511.0
2018-Feb-03 09:00N 35°09' E 139°45'510.7
2018-Feb-03 08:30N 35°15' E 139°46'510.1
2018-Feb-03 08:00N 35°19' E 139°43'10 6.7
2018-Feb-03 06:29N 35°29' E 139°39'0 0.0
2018-Feb-03 05:59N 35°29' E 139°39'0 0.0
2018-Feb-03 05:29N 35°29' E 139°39'0 0.0
2018-Feb-03 04:59N 35°29' E 139°39'0 0.0
2018-Feb-03 03:59N 35°29' E 139°39'0 0.0
2018-Feb-03 03:29N 35°29' E 139°39'0 0.0
2018-Feb-03 01:59N 35°29' E 139°39'0 0.0
2018-Feb-03 01:29N 35°29' E 139°39'0 0.1
2018-Feb-03 00:56N 35°29' E 139°39'0 0.1
2018-Feb-03 00:29N 35°29' E 139°39'0 0.0
2018-Feb-02 23:59N 35°29' E 139°39'0 0.0
2018-Feb-02 23:29N 35°29' E 139°39'0 0.0
2018-Feb-02 22:56N 35°29' E 139°39'0 0.0
2018-Feb-02 22:29N 35°29' E 139°39'0 0.0
2018-Feb-02 21:59N 35°29' E 139°39'0 0.0
2018-Feb-02 21:29N 35°29' E 139°39'0 0.0
2018-Feb-02 20:59N 35°29' E 139°39'0 0.0
2018-Feb-02 20:29N 35°29' E 139°39'0 0.0
2018-Feb-02 19:59N 35°29' E 139°39'0 0.0
2018-Feb-02 18:59N 35°29' E 139°39'0 0.0
2018-Feb-02 18:29N 35°29' E 139°39'0 0.0
2018-Feb-02 17:56N 35°29' E 139°39'0 0.0
2018-Feb-02 17:29N 35°29' E 139°39'0 0.0
2018-Feb-02 16:59N 35°29' E 139°39'0 0.0
2018-Feb-02 16:29N 35°29' E 139°39'0 0.0
2018-Feb-02 15:29N 35°29' E 139°39'0 0.0
2018-Feb-02 14:29N 35°29' E 139°39'0 0.0
2018-Feb-02 13:59N 35°29' E 139°39'0 0.0
2018-Feb-02 13:29N 35°29' E 139°39'0 0.0
2018-Feb-02 12:59N 35°29' E 139°39'0 0.0
2018-Feb-02 12:29N 35°29' E 139°39'0 0.0
2018-Feb-02 11:59N 35°29' E 139°39'0 0.0
2018-Feb-02 11:29N 35°29' E 139°39'0 0.0
2018-Feb-02 10:59N 35°29' E 139°39'0 0.0
2018-Feb-02 10:29N 35°29' E 139°39'0 0.0
2018-Feb-02 09:59N 35°29' E 139°39'0 0.0
2018-Feb-02 09:29N 35°29' E 139°39'0 0.0
2018-Feb-02 08:59N 35°29' E 139°39'0 0.0
2018-Feb-02 08:29N 35°29' E 139°39'0 0.0
2018-Feb-02 07:59N 35°29' E 139°39'0 0.0
2018-Feb-02 07:29N 35°29' E 139°39'0 0.0
2018-Feb-02 06:59N 35°29' E 139°39'0 0.0
2018-Feb-02 06:29N 35°29' E 139°39'0 0.0
2018-Feb-02 05:59N 35°29' E 139°39'0 0.0
2018-Feb-02 05:29N 35°29' E 139°39'0 0.0
2018-Feb-02 04:59N 35°29' E 139°39'0 0.0
2018-Feb-02 04:29N 35°29' E 139°39'0 0.0
2018-Feb-02 03:59N 35°29' E 139°39'0 0.0
2018-Feb-02 03:29N 35°29' E 139°39'0 0.0
2018-Feb-02 02:59N 35°29' E 139°39'0 0.0
2018-Feb-02 02:29N 35°29' E 139°39'0 0.0
2018-Feb-02 01:59N 35°29' E 139°39'0 0.0
2018-Feb-02 01:29N 35°29' E 139°39'0 0.0
2018-Feb-02 00:59N 35°29' E 139°39'0 0.0
2018-Feb-02 00:29N 35°29' E 139°39'0 0.0
2018-Feb-01 23:59N 35°29' E 139°39'0 0.0
2018-Feb-01 23:29N 35°29' E 139°39'0 0.0
2018-Feb-01 22:59N 35°29' E 139°39'0 0.0
2018-Feb-01 21:59N 35°29' E 139°39'0 0.0
2018-Feb-01 21:29N 35°29' E 139°39'0 0.0
2018-Feb-01 19:29N 35°29' E 139°39'0 0.0
2018-Feb-01 18:59N 35°29' E 139°39'0 0.0
2018-Feb-01 18:29N 35°29' E 139°39'0 0.0
2018-Feb-01 17:59N 35°29' E 139°39'0 0.0
2018-Feb-01 17:29N 35°29' E 139°39'0 0.0
2018-Feb-01 16:59N 35°29' E 139°39'0 0.0
2018-Feb-01 16:29N 35°29' E 139°39'0 0.0
2018-Feb-01 15:59N 35°29' E 139°39'0 0.0
2018-Feb-01 15:29N 35°29' E 139°39'0 0.0
2018-Feb-01 14:59N 35°29' E 139°39'0 0.0
2018-Feb-01 13:26N 35°29' E 139°39'0 0.0
2018-Feb-01 12:59N 35°29' E 139°39'0 0.0
2018-Feb-01 12:29N 35°29' E 139°39'0 0.0
2018-Feb-01 11:59N 35°29' E 139°39'0 0.0
2018-Feb-01 10:59N 35°29' E 139°39'0 0.0
2018-Feb-01 10:29N 35°29' E 139°39'0 0.0
2018-Feb-01 09:59N 35°29' E 139°39'0 0.0
2018-Feb-01 09:29N 35°29' E 139°39'0 0.0
2018-Feb-01 08:59N 35°29' E 139°39'0 0.0
2018-Feb-01 08:29N 35°29' E 139°39'0 0.0
2018-Feb-01 07:29N 35°29' E 139°39'0 0.0
2018-Feb-01 06:59N 35°29' E 139°39'0 0.0
2018-Feb-01 06:29N 35°29' E 139°39'0 0.0
2018-Feb-01 06:00N 35°29' E 139°39'0 0.0
2018-Feb-01 05:30N 35°29' E 139°39'0 0.0
2018-Feb-01 05:00N 35°29' E 139°39'0 0.0
2018-Feb-01 04:30N 35°29' E 139°39'0 0.0
2018-Feb-01 04:00N 35°29' E 139°39'0 0.0
2018-Feb-01 03:00N 35°29' E 139°39'0 0.0
2018-Feb-01 02:30N 35°29' E 139°39'0 0.0
2018-Feb-01 02:00N 35°29' E 139°39'0 0.0
2018-Feb-01 01:30N 35°29' E 139°39'0 0.0
2018-Feb-01 01:00N 35°29' E 139°39'3 5.3
2018-Feb-01 00:30N 35°27' E 139°41'3 6.6
2018-Feb-01 00:00N 35°27' E 139°45'7 7.3
2018-Jan-31 23:00N 35°30' E 139°53'3 6.0
2018-Jan-31 22:29N 35°33' E 139°56'0 0.0
2018-Jan-31 20:53N 35°32' E 139°56'0 0.0
2018-Jan-31 20:26N 35°32' E 139°56'0 0.0
2018-Jan-31 19:53N 35°32' E 139°56'0 0.0
2018-Jan-31 19:25N 35°32' E 139°56'0 0.0
2018-Jan-31 18:52N 35°32' E 139°56'0 0.0
2018-Jan-31 18:21N 35°32' E 139°56'0 0.0
2018-Jan-31 18:00N 35°32' E 139°56'0 0.0
2018-Jan-31 16:09N 35°32' E 139°56'0 0.0
2018-Jan-31 14:51N 35°32' E 139°56'0 0.0
2018-Jan-31 14:27N 35°32' E 139°56'0 0.0
2018-Jan-31 13:00N 35°32' E 139°56'0 0.1
2018-Jan-31 12:28N 35°32' E 139°56'0 0.0
2018-Jan-31 11:46N 35°32' E 139°56'0 0.0
2018-Jan-31 11:25N 35°32' E 139°56'0 0.0
2018-Jan-31 10:55N 35°32' E 139°56'0 0.0
2018-Jan-31 10:25N 35°32' E 139°56'0 0.0
2018-Jan-31 09:40N 35°32' E 139°56'0 0.0
2018-Jan-31 09:22N 35°32' E 139°56'0 0.0
2018-Jan-31 09:00N 35°32' E 139°56'0 0.0
2018-Jan-31 08:27N 35°32' E 139°56'0 0.0
2018-Jan-31 07:54N 35°32' E 139°56'0 0.1
2018-Jan-31 07:30N 35°32' E 139°56'0 0.0
2018-Jan-31 07:00N 35°32' E 139°56'0 0.0
2018-Jan-31 06:24N 35°32' E 139°56'0 0.0
2018-Jan-31 05:57N 35°32' E 139°56'0 0.0
2018-Jan-31 05:30N 35°32' E 139°56'0 0.0
2018-Jan-31 05:00N 35°32' E 139°56'0 0.0
2018-Jan-31 04:30N 35°32' E 139°56'0 0.1
2018-Jan-31 03:57N 35°32' E 139°56'0 0.1
2018-Jan-31 03:30N 35°32' E 139°56'0 0.0
2018-Jan-31 02:35N 35°32' E 139°56'0 0.0
2018-Jan-31 02:17N 35°32' E 139°56'0 0.0
2018-Jan-31 00:50N 35°32' E 139°56'3 3.9
2018-Jan-31 00:00N 35°34' E 139°60'5 9.8
2018-Jan-30 23:30N 35°36' E 140°05'1 1.6
2018-Jan-30 23:01N 35°36' E 140°06'0 0.0
2018-Jan-30 22:27N 35°36' E 140°06'0 0.0
2018-Jan-30 21:27N 35°36' E 140°06'0 0.0
2018-Jan-30 20:58N 35°36' E 140°06'0 0.0
2018-Jan-30 20:30N 35°36' E 140°06'0 0.0
2018-Jan-30 19:57N 35°36' E 140°06'0 0.0
2018-Jan-30 19:30N 35°36' E 140°06'0 0.0
2018-Jan-30 19:00N 35°36' E 140°06'0 0.0
2018-Jan-30 18:30N 35°36' E 140°06'0 0.0
2018-Jan-30 17:57N 35°36' E 140°06'0 0.0
2018-Jan-30 17:27N 35°36' E 140°06'0 0.0
2018-Jan-30 16:58N 35°36' E 140°06'0 0.0
2018-Jan-30 16:28N 35°36' E 140°06'0 0.0
2018-Jan-30 15:58N 35°36' E 140°06'0 0.0
2018-Jan-30 15:28N 35°36' E 140°06'0 0.0
2018-Jan-30 14:58N 35°36' E 140°06'0 0.0
2018-Jan-30 14:28N 35°36' E 140°06'0 0.0
2018-Jan-30 13:28N 35°36' E 140°06'0 0.0
2018-Jan-30 12:58N 35°36' E 140°06'0 0.0
2018-Jan-30 12:28N 35°36' E 140°06'0 0.0
2018-Jan-30 11:58N 35°36' E 140°06'0 0.0
2018-Jan-30 11:30N 35°36' E 140°06'0 0.0
2018-Jan-30 10:30N 35°36' E 140°06'0 0.0
2018-Jan-30 09:30N 35°36' E 140°06'0 0.0
2018-Jan-30 09:00N 35°36' E 140°06'0 0.0
2018-Jan-30 08:30N 35°36' E 140°06'0 0.0
2018-Jan-30 08:00N 35°36' E 140°06'0 0.0
2018-Jan-30 07:30N 35°36' E 140°06'0 0.0
2018-Jan-30 07:00N 35°36' E 140°06'0 0.0
2018-Jan-30 06:30N 35°36' E 140°06'0 0.0
2018-Jan-30 06:00N 35°36' E 140°06'0 0.0
2018-Jan-30 05:30N 35°36' E 140°06'0 0.0
2018-Jan-30 05:00N 35°36' E 140°06'0 0.0
2018-Jan-30 04:30N 35°36' E 140°06'0 0.0
2018-Jan-30 04:00N 35°36' E 140°06'0 0.0
2018-Jan-30 03:30N 35°36' E 140°06'0 0.0
2018-Jan-30 03:00N 35°36' E 140°06'0 0.0
2018-Jan-30 02:30N 35°36' E 140°06'0 0.0
2018-Jan-30 02:00N 35°36' E 140°06'0 0.0
2018-Jan-30 01:30N 35°36' E 140°06'0 0.0
2018-Jan-30 01:00N 35°36' E 140°06'0 0.0
2018-Jan-30 00:30N 35°36' E 140°06'0 0.0
2018-Jan-30 00:00N 35°36' E 140°06'0 0.0
2018-Jan-29 23:30N 35°36' E 140°06'0 0.0
2018-Jan-29 23:00N 35°36' E 140°06'0 0.0
2018-Jan-29 22:30N 35°36' E 140°06'0 0.0
2018-Jan-29 22:00N 35°36' E 140°06'0 0.0
2018-Jan-29 21:29N 35°36' E 140°06'0 0.0
2018-Jan-29 20:59N 35°36' E 140°06'0 0.0
2018-Jan-29 20:25N 35°36' E 140°06'0 0.0
2018-Jan-29 19:58N 35°36' E 140°06'0 0.0
2018-Jan-29 19:25N 35°36' E 140°06'0 0.0
2018-Jan-29 18:58N 35°36' E 140°06'0 0.0
2018-Jan-29 18:28N 35°36' E 140°06'0 0.0
2018-Jan-29 17:55N 35°36' E 140°06'0 0.0
2018-Jan-29 17:28N 35°36' E 140°06'0 0.0
2018-Jan-29 16:58N 35°36' E 140°06'0 0.0
2018-Jan-29 16:25N 35°36' E 140°06'0 0.0
2018-Jan-29 15:55N 35°36' E 140°06'0 0.0
2018-Jan-29 15:25N 35°36' E 140°06'0 0.0
2018-Jan-29 14:55N 35°36' E 140°06'0 0.0
2018-Jan-29 14:25N 35°36' E 140°06'0 0.0
2018-Jan-29 13:55N 35°36' E 140°06'0 0.0
2018-Jan-29 13:30N 35°36' E 140°06'0 0.0
2018-Jan-29 13:00N 35°36' E 140°06'0 0.0
2018-Jan-29 12:30N 35°36' E 140°06'0 0.0
2018-Jan-29 12:00N 35°36' E 140°06'0 0.0
2018-Jan-29 11:24N 35°36' E 140°06'0 0.0
2018-Jan-29 11:00N 35°36' E 140°06'0 0.0
2018-Jan-29 10:30N 35°36' E 140°06'0 0.0
2018-Jan-29 10:01N 35°36' E 140°06'0 0.0
2018-Jan-29 09:30N 35°36' E 140°06'0 0.0
2018-Jan-29 08:56N 35°36' E 140°06'0 0.0
2018-Jan-29 08:29N 35°36' E 140°06'0 0.0
2018-Jan-29 07:58N 35°36' E 140°06'0 0.0
2018-Jan-29 07:28N 35°36' E 140°06'0 0.0
2018-Jan-29 06:58N 35°36' E 140°06'0 0.0
2018-Jan-29 06:27N 35°36' E 140°06'0 0.0
2018-Jan-29 06:00N 35°36' E 140°06'0 0.0
2018-Jan-29 05:27N 35°36' E 140°06'0 0.0
2018-Jan-29 04:58N 35°36' E 140°06'0 0.0
2018-Jan-29 04:27N 35°36' E 140°06'0 0.0
2018-Jan-29 03:57N 35°36' E 140°06'0 0.0
2018-Jan-29 03:27N 35°36' E 140°06'0 0.0
2018-Jan-29 02:59N 35°36' E 140°06'0 0.0
2018-Jan-29 02:30N 35°36' E 140°06'2 3.3
2018-Jan-29 02:00N 35°35' E 140°04'4 8.3
2018-Jan-29 01:30N 35°34' E 139°59'1 1.8
2018-Jan-29 01:01N 35°34' E 139°58'0 0.1
2018-Jan-29 00:29N 35°34' E 139°58'0 0.0
2018-Jan-28 23:56N 35°34' E 139°58'0 0.0
2018-Jan-28 22:26N 35°34' E 139°58'0 0.0
2018-Jan-28 21:56N 35°34' E 139°58'0 0.0
2018-Jan-28 21:29N 35°34' E 139°58'0 0.0
2018-Jan-28 20:56N 35°34' E 139°58'0 0.0
2018-Jan-28 20:26N 35°34' E 139°58'0 0.0
2018-Jan-28 19:59N 35°34' E 139°58'0 0.0
2018-Jan-28 19:29N 35°34' E 139°58'0 0.0
2018-Jan-28 18:59N 35°34' E 139°58'0 0.0
2018-Jan-28 18:24N 35°34' E 139°58'0 0.0
2018-Jan-28 18:00N 35°34' E 139°58'0 0.0
2018-Jan-28 17:28N 35°34' E 139°58'0 0.0
2018-Jan-28 16:58N 35°34' E 139°58'0 0.0
2018-Jan-28 16:28N 35°34' E 139°58'0 0.0
2018-Jan-28 15:34N 35°34' E 139°58'0 0.0
2018-Jan-28 15:22N 35°34' E 139°58'0 0.0
2018-Jan-28 14:52N 35°34' E 139°58'0 0.0
2018-Jan-28 14:28N 35°34' E 139°58'0 0.0
2018-Jan-28 13:58N 35°34' E 139°58'0 0.0
2018-Jan-28 13:28N 35°34' E 139°58'0 0.0
2018-Jan-28 12:58N 35°34' E 139°58'0 0.0
2018-Jan-28 12:28N 35°34' E 139°58'0 0.0
2018-Jan-28 11:59N 35°34' E 139°58'0 0.1
2018-Jan-28 11:30N 35°34' E 139°58'0 0.0
2018-Jan-28 11:00N 35°34' E 139°58'0 0.1
2018-Jan-28 10:29N 35°34' E 139°58'2 4.5
2018-Jan-28 10:00N 35°32' E 139°57'510.4
2018-Jan-28 09:30N 35°29' E 139°52'510.6
2018-Jan-28 09:00N 35°25' E 139°47'510.3
2018-Jan-28 08:30N 35°21' E 139°45'5 9.1
2018-Jan-28 08:00N 35°16' E 139°46'5 9.8
2018-Jan-28 07:30N 35°11' E 139°47'510.6
2018-Jan-28 07:00N 35°06' E 139°46'510.8
2018-Jan-28 06:30N 35°01' E 139°44'5 9.9
2018-Jan-28 05:59N 34°56' E 139°44'20 9.0
2018-Jan-28 03:45N 34°36' E 139°42'311.8
2018-Jan-28 03:30N 34°33' E 139°41'1111.9
2018-Jan-28 02:37N 34°22' E 139°40'13 1.2
2018-Jan-27 15:36N 34°35' E 139°41'13 5.4
2018-Jan-27 13:13N 34°48' E 139°43'2 5.5
2018-Jan-27 12:49N 34°50' E 139°43'2 6.3
2018-Jan-27 12:29N 34°52' E 139°43'4 8.8
2018-Jan-27 12:00N 34°57' E 139°44'510.4
2018-Jan-27 11:31N 35°02' E 139°44'510.3
2018-Jan-27 11:00N 35°07' E 139°45'510.7
2018-Jan-27 10:30N 35°12' E 139°46'611.4
2018-Jan-27 10:00N 35°18' E 139°45'611.0
2018-Jan-27 09:30N 35°23' E 139°42'510.9
2018-Jan-27 09:00N 35°27' E 139°47'611.5
2018-Jan-27 08:30N 35°30' E 139°53'611.4
2018-Jan-27 08:00N 35°33' E 139°59'510.9
2018-Jan-27 07:30N 35°36' E 140°05'1 1.9
2018-Jan-27 06:58N 35°36' E 140°06'0 0.0
2018-Jan-27 06:28N 35°36' E 140°06'0 0.0
2018-Jan-27 05:58N 35°36' E 140°06'0 0.0
2018-Jan-27 05:28N 35°36' E 140°06'0 0.0
2018-Jan-27 05:00N 35°36' E 140°06'0 0.0
2018-Jan-27 04:30N 35°36' E 140°06'0 0.0
2018-Jan-27 03:56N 35°36' E 140°06'0 0.0
2018-Jan-27 03:29N 35°36' E 140°06'0 0.0
2018-Jan-27 03:00N 35°36' E 140°06'0 0.0
2018-Jan-27 02:28N 35°36' E 140°06'0 0.0
2018-Jan-27 01:58N 35°36' E 140°06'0 0.0
2018-Jan-27 01:28N 35°36' E 140°06'0 0.0
2018-Jan-27 00:58N 35°36' E 140°06'0 0.0
2018-Jan-27 00:28N 35°36' E 140°06'0 0.0
2018-Jan-27 00:00N 35°36' E 140°06'0 0.0
2018-Jan-26 23:30N 35°36' E 140°06'0 0.0
2018-Jan-26 23:00N 35°36' E 140°06'0 0.0
2018-Jan-26 22:28N 35°36' E 140°06'0 0.0
2018-Jan-26 21:58N 35°36' E 140°06'0 0.0
2018-Jan-26 21:27N 35°36' E 140°06'0 0.0
2018-Jan-26 20:57N 35°36' E 140°06'0 0.0
2018-Jan-26 20:30N 35°36' E 140°06'0 0.0
2018-Jan-26 20:00N 35°36' E 140°06'0 0.0
2018-Jan-26 19:30N 35°36' E 140°06'0 0.0
2018-Jan-26 18:57N 35°36' E 140°06'0 0.0
2018-Jan-26 18:27N 35°36' E 140°06'0 0.0
2018-Jan-26 18:00N 35°36' E 140°06'0 0.0
2018-Jan-26 17:28N 35°36' E 140°06'0 0.0
2018-Jan-26 17:00N 35°36' E 140°06'0 0.0
2018-Jan-26 16:31N 35°36' E 140°06'0 0.0
2018-Jan-26 16:00N 35°36' E 140°06'0 0.0
2018-Jan-26 15:30N 35°36' E 140°06'0 0.0
2018-Jan-26 14:55N 35°36' E 140°06'0 0.0
2018-Jan-26 14:25N 35°36' E 140°06'0 0.0
2018-Jan-26 13:59N 35°36' E 140°06'0 0.0
2018-Jan-26 13:26N 35°36' E 140°06'0 0.0
2018-Jan-26 12:56N 35°36' E 140°06'0 0.0
2018-Jan-26 12:26N 35°36' E 140°06'0 0.0
2018-Jan-26 11:56N 35°36' E 140°06'0 0.0
2018-Jan-26 11:26N 35°36' E 140°06'0 0.0
2018-Jan-26 10:56N 35°36' E 140°06'0 0.0
2018-Jan-26 10:26N 35°36' E 140°06'0 0.0
2018-Jan-26 09:56N 35°36' E 140°06'0 0.0
2018-Jan-26 09:27N 35°36' E 140°06'0 0.0
2018-Jan-26 09:00N 35°36' E 140°06'0 0.0
2018-Jan-26 08:30N 35°36' E 140°06'0 0.0
2018-Jan-26 08:01N 35°36' E 140°06'0 0.0
2018-Jan-26 07:25N 35°36' E 140°06'0 0.0
2018-Jan-26 06:58N 35°36' E 140°06'0 0.0
2018-Jan-26 06:25N 35°36' E 140°06'0 0.0
2018-Jan-26 05:58N 35°36' E 140°06'0 0.0
2018-Jan-26 05:25N 35°36' E 140°06'0 0.0
2018-Jan-26 04:59N 35°36' E 140°06'0 0.0
2018-Jan-26 04:26N 35°36' E 140°06'0 0.0
2018-Jan-26 03:56N 35°36' E 140°06'0 0.0
2018-Jan-26 03:29N 35°36' E 140°06'0 0.0
2018-Jan-26 02:59N 35°36' E 140°06'0 0.0
2018-Jan-26 02:29N 35°36' E 140°06'0 0.0
2018-Jan-26 01:59N 35°36' E 140°06'0 0.0
2018-Jan-26 01:29N 35°36' E 140°06'0 0.0
2018-Jan-26 00:59N 35°36' E 140°06'0 0.0
2018-Jan-26 00:30N 35°36' E 140°06'0 0.0
2018-Jan-25 23:55N 35°36' E 140°06'0 0.0
2018-Jan-25 23:25N 35°36' E 140°06'0 0.0
2018-Jan-25 22:58N 35°36' E 140°06'0 0.0
2018-Jan-25 22:25N 35°36' E 140°06'0 0.0
2018-Jan-25 21:55N 35°36' E 140°06'0 0.0
2018-Jan-25 21:28N 35°36' E 140°06'0 0.0
2018-Jan-25 20:55N 35°36' E 140°06'0 0.0
2018-Jan-25 20:25N 35°36' E 140°06'0 0.0
2018-Jan-25 19:55N 35°36' E 140°06'0 0.0
2018-Jan-25 19:25N 35°36' E 140°06'0 0.0
2018-Jan-25 18:58N 35°36' E 140°06'0 0.0
2018-Jan-25 18:25N 35°36' E 140°06'0 0.0
2018-Jan-25 17:55N 35°36' E 140°06'0 0.0
2018-Jan-25 17:25N 35°36' E 140°06'0 0.0
2018-Jan-25 17:00N 35°36' E 140°06'0 0.0
2018-Jan-25 16:29N 35°36' E 140°06'0 0.0
2018-Jan-25 15:56N 35°36' E 140°06'0 0.0
2018-Jan-25 15:26N 35°36' E 140°06'0 0.0
2018-Jan-25 14:56N 35°36' E 140°06'0 0.0
2018-Jan-25 14:26N 35°36' E 140°06'0 0.0
2018-Jan-25 13:56N 35°36' E 140°06'0 0.0
2018-Jan-25 13:29N 35°36' E 140°06'0 0.0
2018-Jan-25 12:59N 35°36' E 140°06'0 0.0
2018-Jan-25 12:30N 35°36' E 140°06'0 0.0
2018-Jan-25 12:00N 35°36' E 140°06'0 0.0
2018-Jan-25 11:30N 35°36' E 140°06'0 0.0
2018-Jan-25 10:57N 35°36' E 140°06'0 0.0
2018-Jan-25 10:28N 35°36' E 140°06'0 0.0
2018-Jan-25 10:00N 35°36' E 140°06'0 0.0
2018-Jan-25 09:26N 35°36' E 140°06'0 0.0
2018-Jan-25 08:59N 35°36' E 140°06'0 0.0
2018-Jan-25 08:26N 35°36' E 140°06'0 0.0
2018-Jan-25 07:59N 35°36' E 140°06'0 0.0
2018-Jan-25 07:29N 35°36' E 140°06'0 0.0
2018-Jan-25 06:59N 35°36' E 140°06'0 0.0
2018-Jan-25 06:29N 35°36' E 140°06'0 0.0
2018-Jan-25 06:01N 35°36' E 140°06'0 0.0
2018-Jan-25 05:29N 35°36' E 140°06'0 0.0
2018-Jan-25 04:59N 35°36' E 140°06'0 0.0
2018-Jan-25 04:29N 35°36' E 140°06'0 0.0
2018-Jan-25 03:57N 35°36' E 140°06'0 0.0
2018-Jan-25 03:30N 35°36' E 140°06'0 0.0
2018-Jan-25 03:00N 35°36' E 140°06'0 0.0
2018-Jan-25 02:30N 35°36' E 140°06'0 0.0
2018-Jan-25 02:00N 35°36' E 140°06'0 0.0
2018-Jan-25 01:30N 35°36' E 140°06'0 0.0
2018-Jan-25 01:00N 35°36' E 140°06'0 0.0
2018-Jan-25 00:30N 35°36' E 140°06'0 0.0
2018-Jan-25 00:00N 35°36' E 140°06'0 0.0
2018-Jan-24 23:30N 35°36' E 140°06'0 0.0
2018-Jan-24 23:00N 35°36' E 140°06'0 0.0
2018-Jan-24 22:30N 35°36' E 140°06'0 0.0
2018-Jan-24 22:00N 35°36' E 140°06'0 0.0
2018-Jan-24 21:30N 35°36' E 140°06'0 0.0
2018-Jan-24 21:00N 35°36' E 140°06'0 0.0
2018-Jan-24 20:30N 35°36' E 140°06'0 0.0
2018-Jan-24 20:00N 35°36' E 140°06'0 0.0
2018-Jan-24 19:27N 35°36' E 140°06'0 0.0
2018-Jan-24 19:00N 35°36' E 140°06'0 0.0
2018-Jan-24 18:29N 35°36' E 140°06'0 0.0
2018-Jan-24 17:59N 35°36' E 140°06'0 0.0
2018-Jan-24 17:29N 35°36' E 140°06'0 0.0
2018-Jan-24 16:59N 35°36' E 140°06'0 0.0
2018-Jan-24 16:29N 35°36' E 140°06'0 0.0
2018-Jan-24 15:59N 35°36' E 140°06'  
Track history (hours):
 
Tides and Currents Weather Stations Pressure Air Temp Water Temp Dewpoint Dewpoint Depression Visibility Wind Speed Wind Dir Waves Ship Positions

Oceanographic research ship Oshoro Maru (Japan)

Detailed information on ship capabilities available from University of Delaware's Ocean Information Center.

Last reported at 2018-Feb-03 15:33 UTC. Time now 2018-Feb-25 11:40 UTC.
Position N 34°31' E 138°51'.
Warning: this ship's position is 21 days out of date.

Length 73 m; beam 13 m; draft 5 m.

Type: Other ship. MMSI: 431477000.

Date/timePositionNaut miles runAvg speedWind from/ knotsBaromVisibWave heightAir tempDewpointWater temp
2018-Feb-03 15:33N 34°31' E 138°51'1 7.0
2018-Feb-03 15:25N 34°32' E 138°52'3 7.1
2018-Feb-03 15:00N 34°33' E 138°55'4 7.0
2018-Feb-03 14:30N 34°34' E 138°59'4 7.8
2018-Feb-03 13:55N 34°37' E 139°03'4 8.6
2018-Feb-03 13:26N 34°40' E 139°07'5 8.8
2018-Feb-03 12:54N 34°44' E 139°11'3 8.9
2018-Feb-03 12:30N 34°46' E 139°14'8 9.6
2018-Feb-03 11:40N 34°51' E 139°22'2 9.5
2018-Feb-03 11:29N 34°52' E 139°24'5 9.3
2018-Feb-03 11:00N 34°55' E 139°28'5 9.1
2018-Feb-03 10:30N 34°58' E 139°32'5 9.5
2018-Feb-03 10:00N 35°01' E 139°36'610.7
2018-Feb-03 09:27N 35°05' E 139°41'511.0
2018-Feb-03 09:00N 35°09' E 139°45'510.7
2018-Feb-03 08:30N 35°15' E 139°46'510.1
2018-Feb-03 08:00N 35°19' E 139°43'10 6.7
2018-Feb-03 06:29N 35°29' E 139°39'0 0.0
2018-Feb-03 05:59N 35°29' E 139°39'0 0.0
2018-Feb-03 05:29N 35°29' E 139°39'0 0.0
2018-Feb-03 04:59N 35°29' E 139°39'0 0.0
2018-Feb-03 03:59N 35°29' E 139°39'0 0.0
2018-Feb-03 03:29N 35°29' E 139°39'0 0.0
2018-Feb-03 01:59N 35°29' E 139°39'0 0.0
2018-Feb-03 01:29N 35°29' E 139°39'0 0.1
2018-Feb-03 00:56N 35°29' E 139°39'0 0.1
2018-Feb-03 00:29N 35°29' E 139°39'0 0.0
2018-Feb-02 23:59N 35°29' E 139°39'0 0.0
2018-Feb-02 23:29N 35°29' E 139°39'0 0.0
2018-Feb-02 22:56N 35°29' E 139°39'0 0.0
2018-Feb-02 22:29N 35°29' E 139°39'0 0.0
2018-Feb-02 21:59N 35°29' E 139°39'0 0.0
2018-Feb-02 21:29N 35°29' E 139°39'0 0.0
2018-Feb-02 20:59N 35°29' E 139°39'0 0.0
2018-Feb-02 20:29N 35°29' E 139°39'0 0.0
2018-Feb-02 19:59N 35°29' E 139°39'0 0.0
2018-Feb-02 18:59N 35°29' E 139°39'0 0.0
2018-Feb-02 18:29N 35°29' E 139°39'0 0.0
2018-Feb-02 17:56N 35°29' E 139°39'0 0.0
2018-Feb-02 17:29N 35°29' E 139°39'0 0.0
2018-Feb-02 16:59N 35°29' E 139°39'0 0.0
2018-Feb-02 16:29N 35°29' E 139°39'0 0.0
2018-Feb-02 15:29N 35°29' E 139°39'0 0.0
2018-Feb-02 14:29N 35°29' E 139°39'0 0.0
2018-Feb-02 13:59N 35°29' E 139°39'0 0.0
2018-Feb-02 13:29N 35°29' E 139°39'0 0.0
2018-Feb-02 12:59N 35°29' E 139°39'0 0.0
2018-Feb-02 12:29N 35°29' E 139°39'0 0.0
2018-Feb-02 11:59N 35°29' E 139°39'0 0.0
2018-Feb-02 11:29N 35°29' E 139°39'0 0.0
2018-Feb-02 10:59N 35°29' E 139°39'0 0.0
2018-Feb-02 10:29N 35°29' E 139°39'0 0.0
2018-Feb-02 09:59N 35°29' E 139°39'0 0.0
2018-Feb-02 09:29N 35°29' E 139°39'0 0.0
2018-Feb-02 08:59N 35°29' E 139°39'0 0.0
2018-Feb-02 08:29N 35°29' E 139°39'0 0.0
2018-Feb-02 07:59N 35°29' E 139°39'0 0.0
2018-Feb-02 07:29N 35°29' E 139°39'0 0.0
2018-Feb-02 06:59N 35°29' E 139°39'0 0.0
2018-Feb-02 06:29N 35°29' E 139°39'0 0.0
2018-Feb-02 05:59N 35°29' E 139°39'0 0.0
2018-Feb-02 05:29N 35°29' E 139°39'0 0.0
2018-Feb-02 04:59N 35°29' E 139°39'0 0.0
2018-Feb-02 04:29N 35°29' E 139°39'0 0.0
2018-Feb-02 03:59N 35°29' E 139°39'0 0.0
2018-Feb-02 03:29N 35°29' E 139°39'0 0.0
2018-Feb-02 02:59N 35°29' E 139°39'0 0.0
2018-Feb-02 02:29N 35°29' E 139°39'0 0.0
2018-Feb-02 01:59N 35°29' E 139°39'0 0.0
2018-Feb-02 01:29N 35°29' E 139°39'0 0.0
2018-Feb-02 00:59N 35°29' E 139°39'0 0.0
2018-Feb-02 00:29N 35°29' E 139°39'0 0.0
2018-Feb-01 23:59N 35°29' E 139°39'0 0.0
2018-Feb-01 23:29N 35°29' E 139°39'0 0.0
2018-Feb-01 22:59N 35°29' E 139°39'0 0.0
2018-Feb-01 21:59N 35°29' E 139°39'0 0.0
2018-Feb-01 21:29N 35°29' E 139°39'0 0.0
2018-Feb-01 19:29N 35°29' E 139°39'0 0.0
2018-Feb-01 18:59N 35°29' E 139°39'0 0.0
2018-Feb-01 18:29N 35°29' E 139°39'0 0.0
2018-Feb-01 17:59N 35°29' E 139°39'0 0.0
2018-Feb-01 17:29N 35°29' E 139°39'0 0.0
2018-Feb-01 16:59N 35°29' E 139°39'0 0.0
2018-Feb-01 16:29N 35°29' E 139°39'0 0.0
2018-Feb-01 15:59N 35°29' E 139°39'0 0.0
2018-Feb-01 15:29N 35°29' E 139°39'0 0.0
2018-Feb-01 14:59N 35°29' E 139°39'0 0.0
2018-Feb-01 13:26N 35°29' E 139°39'0 0.0
2018-Feb-01 12:59N 35°29' E 139°39'0 0.0
2018-Feb-01 12:29N 35°29' E 139°39'0 0.0
2018-Feb-01 11:59N 35°29' E 139°39'0 0.0
2018-Feb-01 10:59N 35°29' E 139°39'0 0.0
2018-Feb-01 10:29N 35°29' E 139°39'0 0.0
2018-Feb-01 09:59N 35°29' E 139°39'0 0.0
2018-Feb-01 09:29N 35°29' E 139°39'0 0.0
2018-Feb-01 08:59N 35°29' E 139°39'0 0.0
2018-Feb-01 08:29N 35°29' E 139°39'0 0.0
2018-Feb-01 07:29N 35°29' E 139°39'0 0.0
2018-Feb-01 06:59N 35°29' E 139°39'0 0.0
2018-Feb-01 06:29N 35°29' E 139°39'0 0.0
2018-Feb-01 06:00N 35°29' E 139°39'0 0.0
2018-Feb-01 05:30N 35°29' E 139°39'0 0.0
2018-Feb-01 05:00N 35°29' E 139°39'0 0.0
2018-Feb-01 04:30N 35°29' E 139°39'0 0.0
2018-Feb-01 04:00N 35°29' E 139°39'0 0.0
2018-Feb-01 03:00N 35°29' E 139°39'0 0.0
2018-Feb-01 02:30N 35°29' E 139°39'0 0.0
2018-Feb-01 02:00N 35°29' E 139°39'0 0.0
2018-Feb-01 01:30N 35°29' E 139°39'0 0.0
2018-Feb-01 01:00N 35°29' E 139°39'3 5.3
2018-Feb-01 00:30N 35°27' E 139°41'3 6.6
2018-Feb-01 00:00N 35°27' E 139°45'7 7.3
2018-Jan-31 23:00N 35°30' E 139°53'3 6.0
2018-Jan-31 22:29N 35°33' E 139°56'0 0.0
2018-Jan-31 20:53N 35°32' E 139°56'0 0.0
2018-Jan-31 20:26N 35°32' E 139°56'0 0.0
2018-Jan-31 19:53N 35°32' E 139°56'0 0.0
2018-Jan-31 19:25N 35°32' E 139°56'0 0.0
2018-Jan-31 18:52N 35°32' E 139°56'0 0.0
2018-Jan-31 18:21N 35°32' E 139°56'0 0.0
2018-Jan-31 18:00N 35°32' E 139°56'0 0.0
2018-Jan-31 16:09N 35°32' E 139°56'0 0.0
2018-Jan-31 14:51N 35°32' E 139°56'0 0.0
2018-Jan-31 14:27N 35°32' E 139°56'0 0.0
2018-Jan-31 13:00N 35°32' E 139°56'0 0.1
2018-Jan-31 12:28N 35°32' E 139°56'0 0.0
2018-Jan-31 11:46N 35°32' E 139°56'0 0.0
2018-Jan-31 11:25N 35°32' E 139°56'0 0.0
2018-Jan-31 10:55N 35°32' E 139°56'0 0.0
2018-Jan-31 10:25N 35°32' E 139°56'0 0.0
2018-Jan-31 09:40N 35°32' E 139°56'0 0.0
2018-Jan-31 09:22N 35°32' E 139°56'0 0.0
2018-Jan-31 09:00N 35°32' E 139°56'0 0.0
2018-Jan-31 08:27N 35°32' E 139°56'0 0.0
2018-Jan-31 07:54N 35°32' E 139°56'0 0.1
2018-Jan-31 07:30N 35°32' E 139°56'0 0.0
2018-Jan-31 07:00N 35°32' E 139°56'0 0.0
2018-Jan-31 06:24N 35°32' E 139°56'0 0.0
2018-Jan-31 05:57N 35°32' E 139°56'0 0.0
2018-Jan-31 05:30N 35°32' E 139°56'0 0.0
2018-Jan-31 05:00N 35°32' E 139°56'0 0.0
2018-Jan-31 04:30N 35°32' E 139°56'0 0.1
2018-Jan-31 03:57N 35°32' E 139°56'0 0.1
2018-Jan-31 03:30N 35°32' E 139°56'0 0.0
2018-Jan-31 02:35N 35°32' E 139°56'0 0.0
2018-Jan-31 02:17N 35°32' E 139°56'0 0.0
2018-Jan-31 00:50N 35°32' E 139°56'3 3.9
2018-Jan-31 00:00N 35°34' E 139°60'5 9.8
2018-Jan-30 23:30N 35°36' E 140°05'1 1.6
2018-Jan-30 23:01N 35°36' E 140°06'0 0.0
2018-Jan-30 22:27N 35°36' E 140°06'0 0.0
2018-Jan-30 21:27N 35°36' E 140°06'0 0.0
2018-Jan-30 20:58N 35°36' E 140°06'0 0.0
2018-Jan-30 20:30N 35°36' E 140°06'0 0.0
2018-Jan-30 19:57N 35°36' E 140°06'0 0.0
2018-Jan-30 19:30N 35°36' E 140°06'0 0.0
2018-Jan-30 19:00N 35°36' E 140°06'0 0.0
2018-Jan-30 18:30N 35°36' E 140°06'0 0.0
2018-Jan-30 17:57N 35°36' E 140°06'0 0.0
2018-Jan-30 17:27N 35°36' E 140°06'0 0.0
2018-Jan-30 16:58N 35°36' E 140°06'0 0.0
2018-Jan-30 16:28N 35°36' E 140°06'0 0.0
2018-Jan-30 15:58N 35°36' E 140°06'0 0.0
2018-Jan-30 15:28N 35°36' E 140°06'0 0.0
2018-Jan-30 14:58N 35°36' E 140°06'0 0.0
2018-Jan-30 14:28N 35°36' E 140°06'0 0.0
2018-Jan-30 13:28N 35°36' E 140°06'0 0.0
2018-Jan-30 12:58N 35°36' E 140°06'0 0.0
2018-Jan-30 12:28N 35°36' E 140°06'0 0.0
2018-Jan-30 11:58N 35°36' E 140°06'0 0.0
2018-Jan-30 11:30N 35°36' E 140°06'0 0.0
2018-Jan-30 10:30N 35°36' E 140°06'0 0.0
2018-Jan-30 09:30N 35°36' E 140°06'0 0.0
2018-Jan-30 09:00N 35°36' E 140°06'0 0.0
2018-Jan-30 08:30N 35°36' E 140°06'0 0.0
2018-Jan-30 08:00N 35°36' E 140°06'0 0.0
2018-Jan-30 07:30N 35°36' E 140°06'0 0.0
2018-Jan-30 07:00N 35°36' E 140°06'0 0.0
2018-Jan-30 06:30N 35°36' E 140°06'0 0.0
2018-Jan-30 06:00N 35°36' E 140°06'0 0.0
2018-Jan-30 05:30N 35°36' E 140°06'0 0.0
2018-Jan-30 05:00N 35°36' E 140°06'0 0.0
2018-Jan-30 04:30N 35°36' E 140°06'0 0.0
2018-Jan-30 04:00N 35°36' E 140°06'0 0.0
2018-Jan-30 03:30N 35°36' E 140°06'0 0.0
2018-Jan-30 03:00N 35°36' E 140°06'0 0.0
2018-Jan-30 02:30N 35°36' E 140°06'0 0.0
2018-Jan-30 02:00N 35°36' E 140°06'0 0.0
2018-Jan-30 01:30N 35°36' E 140°06'0 0.0
2018-Jan-30 01:00N 35°36' E 140°06'0 0.0
2018-Jan-30 00:30N 35°36' E 140°06'0 0.0
2018-Jan-30 00:00N 35°36' E 140°06'0 0.0
2018-Jan-29 23:30N 35°36' E 140°06'0 0.0
2018-Jan-29 23:00N 35°36' E 140°06'0 0.0
2018-Jan-29 22:30N 35°36' E 140°06'0 0.0
2018-Jan-29 22:00N 35°36' E 140°06'0 0.0
2018-Jan-29 21:29N 35°36' E 140°06'0 0.0
2018-Jan-29 20:59N 35°36' E 140°06'0 0.0
2018-Jan-29 20:25N 35°36' E 140°06'0 0.0
2018-Jan-29 19:58N 35°36' E 140°06'0 0.0
2018-Jan-29 19:25N 35°36' E 140°06'0 0.0
2018-Jan-29 18:58N 35°36' E 140°06'0 0.0
2018-Jan-29 18:28N 35°36' E 140°06'0 0.0
2018-Jan-29 17:55N 35°36' E 140°06'0 0.0
2018-Jan-29 17:28N 35°36' E 140°06'0 0.0
2018-Jan-29 16:58N 35°36' E 140°06'0 0.0
2018-Jan-29 16:25N 35°36' E 140°06'0 0.0
2018-Jan-29 15:55N 35°36' E 140°06'0 0.0
2018-Jan-29 15:25N 35°36' E 140°06'0 0.0
2018-Jan-29 14:55N 35°36' E 140°06'0 0.0
2018-Jan-29 14:25N 35°36' E 140°06'0 0.0
2018-Jan-29 13:55N 35°36' E 140°06'0 0.0
2018-Jan-29 13:30N 35°36' E 140°06'0 0.0
2018-Jan-29 13:00N 35°36' E 140°06'0 0.0
2018-Jan-29 12:30N 35°36' E 140°06'0 0.0
2018-Jan-29 12:00N 35°36' E 140°06'0 0.0
2018-Jan-29 11:24N 35°36' E 140°06'0 0.0
2018-Jan-29 11:00N 35°36' E 140°06'0 0.0
2018-Jan-29 10:30N 35°36' E 140°06'0 0.0
2018-Jan-29 10:01N 35°36' E 140°06'0 0.0
2018-Jan-29 09:30N 35°36' E 140°06'0 0.0
2018-Jan-29 08:56N 35°36' E 140°06'0 0.0
2018-Jan-29 08:29N 35°36' E 140°06'0 0.0
2018-Jan-29 07:58N 35°36' E 140°06'0 0.0
2018-Jan-29 07:28N 35°36' E 140°06'0 0.0
2018-Jan-29 06:58N 35°36' E 140°06'0 0.0
2018-Jan-29 06:27N 35°36' E 140°06'0 0.0
2018-Jan-29 06:00N 35°36' E 140°06'0 0.0
2018-Jan-29 05:27N 35°36' E 140°06'0 0.0
2018-Jan-29 04:58N 35°36' E 140°06'0 0.0
2018-Jan-29 04:27N 35°36' E 140°06'0 0.0
2018-Jan-29 03:57N 35°36' E 140°06'0 0.0
2018-Jan-29 03:27N 35°36' E 140°06'0 0.0
2018-Jan-29 02:59N 35°36' E 140°06'0 0.0
2018-Jan-29 02:30N 35°36' E 140°06'2 3.3
2018-Jan-29 02:00N 35°35' E 140°04'4 8.3
2018-Jan-29 01:30N 35°34' E 139°59'1 1.8
2018-Jan-29 01:01N 35°34' E 139°58'0 0.1
2018-Jan-29 00:29N 35°34' E 139°58'0 0.0
2018-Jan-28 23:56N 35°34' E 139°58'0 0.0
2018-Jan-28 22:26N 35°34' E 139°58'0 0.0
2018-Jan-28 21:56N 35°34' E 139°58'0 0.0
2018-Jan-28 21:29N 35°34' E 139°58'0 0.0
2018-Jan-28 20:56N 35°34' E 139°58'0 0.0
2018-Jan-28 20:26N 35°34' E 139°58'0 0.0
2018-Jan-28 19:59N 35°34' E 139°58'0 0.0
2018-Jan-28 19:29N 35°34' E 139°58'0 0.0
2018-Jan-28 18:59N 35°34' E 139°58'0 0.0
2018-Jan-28 18:24N 35°34' E 139°58'0 0.0
2018-Jan-28 18:00N 35°34' E 139°58'0 0.0
2018-Jan-28 17:28N 35°34' E 139°58'0 0.0
2018-Jan-28 16:58N 35°34' E 139°58'0 0.0
2018-Jan-28 16:28N 35°34' E 139°58'0 0.0
2018-Jan-28 15:34N 35°34' E 139°58'0 0.0
2018-Jan-28 15:22N 35°34' E 139°58'0 0.0
2018-Jan-28 14:52N 35°34' E 139°58'0 0.0
2018-Jan-28 14:28N 35°34' E 139°58'0 0.0
2018-Jan-28 13:58N 35°34' E 139°58'0 0.0
2018-Jan-28 13:28N 35°34' E 139°58'0 0.0
2018-Jan-28 12:58N 35°34' E 139°58'0 0.0
2018-Jan-28 12:28N 35°34' E 139°58'0 0.0
2018-Jan-28 11:59N 35°34' E 139°58'0 0.1
2018-Jan-28 11:30N 35°34' E 139°58'0 0.0
2018-Jan-28 11:00N 35°34' E 139°58'0 0.1
2018-Jan-28 10:29N 35°34' E 139°58'2 4.5
2018-Jan-28 10:00N 35°32' E 139°57'510.4
2018-Jan-28 09:30N 35°29' E 139°52'510.6
2018-Jan-28 09:00N 35°25' E 139°47'510.3
2018-Jan-28 08:30N 35°21' E 139°45'5 9.1
2018-Jan-28 08:00N 35°16' E 139°46'5 9.8
2018-Jan-28 07:30N 35°11' E 139°47'510.6
2018-Jan-28 07:00N 35°06' E 139°46'510.8
2018-Jan-28 06:30N 35°01' E 139°44'5 9.9
2018-Jan-28 05:59N 34°56' E 139°44'20 9.0
2018-Jan-28 03:45N 34°36' E 139°42'311.8
2018-Jan-28 03:30N 34°33' E 139°41'1111.9
2018-Jan-28 02:37N 34°22' E 139°40'13 1.2
2018-Jan-27 15:36N 34°35' E 139°41'13 5.4
2018-Jan-27 13:13N 34°48' E 139°43'2 5.5
2018-Jan-27 12:49N 34°50' E 139°43'2 6.3
2018-Jan-27 12:29N 34°52' E 139°43'4 8.8
2018-Jan-27 12:00N 34°57' E 139°44'510.4
2018-Jan-27 11:31N 35°02' E 139°44'510.3
2018-Jan-27 11:00N 35°07' E 139°45'510.7
2018-Jan-27 10:30N 35°12' E 139°46'611.4
2018-Jan-27 10:00N 35°18' E 139°45'611.0
2018-Jan-27 09:30N 35°23' E 139°42'510.9
2018-Jan-27 09:00N 35°27' E 139°47'611.5
2018-Jan-27 08:30N 35°30' E 139°53'611.4
2018-Jan-27 08:00N 35°33' E 139°59'510.9
2018-Jan-27 07:30N 35°36' E 140°05'1 1.9
2018-Jan-27 06:58N 35°36' E 140°06'0 0.0
2018-Jan-27 06:28N 35°36' E 140°06'0 0.0
2018-Jan-27 05:58N 35°36' E 140°06'0 0.0
2018-Jan-27 05:28N 35°36' E 140°06'0 0.0
2018-Jan-27 05:00N 35°36' E 140°06'0 0.0
2018-Jan-27 04:30N 35°36' E 140°06'0 0.0
2018-Jan-27 03:56N 35°36' E 140°06'0 0.0
2018-Jan-27 03:29N 35°36' E 140°06'0 0.0
2018-Jan-27 03:00N 35°36' E 140°06'0 0.0
2018-Jan-27 02:28N 35°36' E 140°06'0 0.0
2018-Jan-27 01:58N 35°36' E 140°06'0 0.0
2018-Jan-27 01:28N 35°36' E 140°06'0 0.0
2018-Jan-27 00:58N 35°36' E 140°06'0 0.0
2018-Jan-27 00:28N 35°36' E 140°06'0 0.0
2018-Jan-27 00:00N 35°36' E 140°06'0 0.0
2018-Jan-26 23:30N 35°36' E 140°06'0 0.0
2018-Jan-26 23:00N 35°36' E 140°06'0 0.0
2018-Jan-26 22:28N 35°36' E 140°06'0 0.0
2018-Jan-26 21:58N 35°36' E 140°06'0 0.0
2018-Jan-26 21:27N 35°36' E 140°06'0 0.0
2018-Jan-26 20:57N 35°36' E 140°06'0 0.0
2018-Jan-26 20:30N 35°36' E 140°06'0 0.0
2018-Jan-26 20:00N 35°36' E 140°06'0 0.0
2018-Jan-26 19:30N 35°36' E 140°06'0 0.0
2018-Jan-26 18:57N 35°36' E 140°06'0 0.0
2018-Jan-26 18:27N 35°36' E 140°06'0 0.0
2018-Jan-26 18:00N 35°36' E 140°06'0 0.0
2018-Jan-26 17:28N 35°36' E 140°06'0 0.0
2018-Jan-26 17:00N 35°36' E 140°06'0 0.0
2018-Jan-26 16:31N 35°36' E 140°06'0 0.0
2018-Jan-26 16:00N 35°36' E 140°06'0 0.0
2018-Jan-26 15:30N 35°36' E 140°06'0 0.0
2018-Jan-26 14:55N 35°36' E 140°06'0 0.0
2018-Jan-26 14:25N 35°36' E 140°06'0 0.0
2018-Jan-26 13:59N 35°36' E 140°06'0 0.0
2018-Jan-26 13:26N 35°36' E 140°06'0 0.0
2018-Jan-26 12:56N 35°36' E 140°06'0 0.0
2018-Jan-26 12:26N 35°36' E 140°06'0 0.0
2018-Jan-26 11:56N 35°36' E 140°06'0 0.0
2018-Jan-26 11:26N 35°36' E 140°06'0 0.0
2018-Jan-26 10:56N 35°36' E 140°06'0 0.0
2018-Jan-26 10:26N 35°36' E 140°06'0 0.0
2018-Jan-26 09:56N 35°36' E 140°06'0 0.0
2018-Jan-26 09:27N 35°36' E 140°06'0 0.0
2018-Jan-26 09:00N 35°36' E 140°06'0 0.0
2018-Jan-26 08:30N 35°36' E 140°06'0 0.0
2018-Jan-26 08:01N 35°36' E 140°06'0 0.0
2018-Jan-26 07:25N 35°36' E 140°06'0 0.0
2018-Jan-26 06:58N 35°36' E 140°06'0 0.0
2018-Jan-26 06:25N 35°36' E 140°06'0 0.0
2018-Jan-26 05:58N 35°36' E 140°06'0 0.0
2018-Jan-26 05:25N 35°36' E 140°06'0 0.0
2018-Jan-26 04:59N 35°36' E 140°06'0 0.0
2018-Jan-26 04:26N 35°36' E 140°06'0 0.0
2018-Jan-26 03:56N 35°36' E 140°06'0 0.0
2018-Jan-26 03:29N 35°36' E 140°06'0 0.0
2018-Jan-26 02:59N 35°36' E 140°06'0 0.0
2018-Jan-26 02:29N 35°36' E 140°06'0 0.0
2018-Jan-26 01:59N 35°36' E 140°06'0 0.0
2018-Jan-26 01:29N 35°36' E 140°06'0 0.0
2018-Jan-26 00:59N 35°36' E 140°06'0 0.0
2018-Jan-26 00:30N 35°36' E 140°06'0 0.0
2018-Jan-25 23:55N 35°36' E 140°06'0 0.0
2018-Jan-25 23:25N 35°36' E 140°06'0 0.0
2018-Jan-25 22:58N 35°36' E 140°06'0 0.0
2018-Jan-25 22:25N 35°36' E 140°06'0 0.0
2018-Jan-25 21:55N 35°36' E 140°06'0 0.0
2018-Jan-25 21:28N 35°36' E 140°06'0 0.0
2018-Jan-25 20:55N 35°36' E 140°06'0 0.0
2018-Jan-25 20:25N 35°36' E 140°06'0 0.0
2018-Jan-25 19:55N 35°36' E 140°06'0 0.0
2018-Jan-25 19:25N 35°36' E 140°06'0 0.0
2018-Jan-25 18:58N 35°36' E 140°06'0 0.0
2018-Jan-25 18:25N 35°36' E 140°06'0 0.0
2018-Jan-25 17:55N 35°36' E 140°06'0 0.0
2018-Jan-25 17:25N 35°36' E 140°06'0 0.0
2018-Jan-25 17:00N 35°36' E 140°06'0 0.0
2018-Jan-25 16:29N 35°36' E 140°06'0 0.0
2018-Jan-25 15:56N 35°36' E 140°06'0 0.0
2018-Jan-25 15:26N 35°36' E 140°06'0 0.0
2018-Jan-25 14:56N 35°36' E 140°06'0 0.0
2018-Jan-25 14:26N 35°36' E 140°06'0 0.0
2018-Jan-25 13:56N 35°36' E 140°06'0 0.0
2018-Jan-25 13:29N 35°36' E 140°06'0 0.0
2018-Jan-25 12:59N 35°36' E 140°06'0 0.0
2018-Jan-25 12:30N 35°36' E 140°06'0 0.0
2018-Jan-25 12:00N 35°36' E 140°06'0 0.0
2018-Jan-25 11:30N 35°36' E 140°06'0 0.0
2018-Jan-25 10:57N 35°36' E 140°06'0 0.0
2018-Jan-25 10:28N 35°36' E 140°06'0 0.0
2018-Jan-25 10:00N 35°36' E 140°06'0 0.0
2018-Jan-25 09:26N 35°36' E 140°06'0 0.0
2018-Jan-25 08:59N 35°36' E 140°06'0 0.0
2018-Jan-25 08:26N 35°36' E 140°06'0 0.0
2018-Jan-25 07:59N 35°36' E 140°06'0 0.0
2018-Jan-25 07:29N 35°36' E 140°06'0 0.0
2018-Jan-25 06:59N 35°36' E 140°06'0 0.0
2018-Jan-25 06:29N 35°36' E 140°06'0 0.0
2018-Jan-25 06:01N 35°36' E 140°06'0 0.0
2018-Jan-25 05:29N 35°36' E 140°06'0 0.0
2018-Jan-25 04:59N 35°36' E 140°06'0 0.0
2018-Jan-25 04:29N 35°36' E 140°06'0 0.0
2018-Jan-25 03:57N 35°36' E 140°06'0 0.0
2018-Jan-25 03:30N 35°36' E 140°06'0 0.0
2018-Jan-25 03:00N 35°36' E 140°06'0 0.0
2018-Jan-25 02:30N 35°36' E 140°06'0 0.0
2018-Jan-25 02:00N 35°36' E 140°06'0 0.0
2018-Jan-25 01:30N 35°36' E 140°06'0 0.0
2018-Jan-25 01:00N 35°36' E 140°06'0 0.0
2018-Jan-25 00:30N 35°36' E 140°06'0 0.0
2018-Jan-25 00:00N 35°36' E 140°06'0 0.0
2018-Jan-24 23:30N 35°36' E 140°06'0 0.0
2018-Jan-24 23:00N 35°36' E 140°06'0 0.0
2018-Jan-24 22:30N 35°36' E 140°06'0 0.0
2018-Jan-24 22:00N 35°36' E 140°06'0 0.0
2018-Jan-24 21:30N 35°36' E 140°06'0 0.0
2018-Jan-24 21:00N 35°36' E 140°06'0 0.0
2018-Jan-24 20:30N 35°36' E 140°06'0 0.0
2018-Jan-24 20:00N 35°36' E 140°06'0 0.0
2018-Jan-24 19:27N 35°36' E 140°06'0 0.0
2018-Jan-24 19:00N 35°36' E 140°06'0 0.0
2018-Jan-24 18:29N 35°36' E 140°06'0 0.0
2018-Jan-24 17:59N 35°36' E 140°06'0 0.0
2018-Jan-24 17:29N 35°36' E 140°06'0 0.0
2018-Jan-24 16:59N 35°36' E 140°06'0 0.0
2018-Jan-24 16:29N 35°36' E 140°06'0 0.0
2018-Jan-24 15:59N 35°36' E 140°06'  

Dump ship's entire track history